VAAUVOHY

Guest
Details From VAAU - AURANGABAD
To VOHY - HYDERABAD
Flight Number -
Tags generated
Created
Modified
Stats Distance 256 nm / 474 km
Max Altitude 29,700 ft / 9,053 m
Waypoints 5
Social Downloads 0
Likes 0
Share VATSIM

Download

Looking for another format? Having issues loading an existing format? Contact us
Advertisement - Login to hide

Notes

Basic altitude profile: - Ascent Rate: 2500ft/min - Ascent Speed: 250kts - Cruise Altitude: 35000ft - Cruise Speed: 420kts - Descent Rate: 1500ft/min - Descent Speed: 250kts Options: - Use NATs: yes - Use PACOTS: yes - Use low airways: yes - Use high airways: yes

Route

VAAU IBELA GUMIT W19 BR VOHY

ID Type Via Altitude Latitude Longitude Leg Dist Tot Dist Heading (true) Name
O VAAU APT - 0 ft / 0 m 19.86273˚ 75.39811˚ - 0 nm - AURANGABAD
IBELA FIX - 29,700 ft / 9,053 m 19.37589˚ 76.83219˚ 86 nm 86 nm 110° / 110° -
GUMIT FIX - 27,100 ft / 8,260 m 18.99202˚ 77.46711˚ 42 nm 128 nm 123° / 123° -
BR NDB W19 (AWY-HI) 25,000 ft / 7,620 m 17.91767˚ 77.49879˚ 64 nm 193 nm 178° / 178° BIDAR NDB
O VOHY APT - 0 ft / 0 m 17.45325˚ 78.46909˚ 62 nm 255 nm 117° / 117° HYDERABAD

Altitude Profile

Advertisement - Login to hide

Weather


0- 5 10 15 20 25 30 35+ Temperature / ° C

Clouds and Precipitation
Forecast for 2017-12-13 12:00 UTC. Updated 13 minutes ago

Ground ~20,000 ft ~40,000 ft Winds

VAAU

Details ICAO VAAU (IXU)
Name AURANGABAD
Region India
Timezone Asia/Kolkata (UTC+5.5)
Stats Elevation 1,911 ft / 582 m (AMSL)
Location 19.862727° 75.398112°
Runways 1
Magnetic Variation 0.146° W

METAR

VAAU 130700Z 17003KT 3000 HZ NSC 28/17 Q1016 NOSIG

Decode

TAF

Not found

Departure Runways

ID Width Length Bearing (true) Bearing (mag) Surface Threshold Offset Overrun Length
09 148 ft / 45 m 7,703 ft / 2,348 m 87.94° 88.09° Asphalt 0 ft / 0 m 190 ft / 58 m
27 148 ft / 45 m 7,703 ft / 2,348 m 267.94° 268.09° Asphalt 0 ft / 0 m 200 ft / 61 m

VOHY

Details ICAO VOHY (HYD)
Name HYDERABAD
Region India
Timezone Asia/Kolkata (UTC+5.5)
Stats Elevation 1,742 ft / 531 m (AMSL)
Location 17.453253° 78.469092°
Runways 1
Magnetic Variation 0.582° W

METAR

VOHY 130730Z VRB02KT 5000 HZ NSC 30/18 Q1017 NOSIG

Decode

TAF

Not found

Destination Runways

ID Width Length Bearing (true) Bearing (mag) Surface Threshold Offset Overrun Length
09 148 ft / 45 m 10,585 ft / 3,226 m 88.81° 89.39° Asphalt 1,575 ft / 480 m 200 ft / 61 m
27 148 ft / 45 m 10,585 ft / 3,226 m 268.82° 269.40° Asphalt 2,424 ft / 739 m 200 ft / 61 m

Approach Navaids

Runway Type Ident Frequency Range Bearing (true) Bearing (mag) Slope Elevation
27 Localiser IHYD 110.10 MHz 18 nm / 33 km 268.98° 269.57° - 1,742 ft / 531 m (AMSL)
27 Glidescope IHYD 110.10 MHz 10 nm / 19 km 268.81° 269.40° 3.00° 1,742 ft / 531 m (AMSL)
27 DME IHYD 110.10 MHz 18 nm / 33 km - - - 1,742 ft / 531 m (AMSL)